Terminal Aerodrome Forecast
Issued by NWS

Current Version | Previous Version | Graphics & Text | Print | Product List | Glossary On
Versions: 1 2 3 4 5 6 7 8 9 10 11 12 13 14 15 16 17 18 19
000
FTUS41 KILN 231100
TAFLUK
TAF
KLUK 231131Z 2312/2412 34007KT P6SM SKC
     FM231600 35008KT P6SM FEW045
     FM240000 00000KT P6SM BKN200
     FM240600 00000KT P6SM OVC120=

USA.gov is the U.S. government's official web portal to all federal, state and local government web resources and services.